Time;durP1;ratioP1;P1;durP2;ratioP2;P2;SDS_P1;SDS_P2;PMS_P1;PMS_P2;Temp;Humidity;BMP_temperature;BMP_pressure;BME280_temperature;BME280_humidity;BME280_pressure;Samples;Min_cycle;Max_cycle;Signal;HPM_P1;HPM_P2
2021/05/22 00:01:39;;;;;;;1.90;0.83;;;;;;;;;;5007542;28;20038;-76
2021/05/22 00:04:05;;;;;;;1.57;1.40;;;;;;;;;;5007140;28;20124;-77
2021/05/22 00:06:31;;;;;;;1.03;0.57;;;;;;;;;;5006728;28;20085;-77
2021/05/22 00:08:57;;;;;;;1.33;0.90;;;;;;;;;;4992320;28;20034;-77
2021/05/22 00:11:24;;;;;;;1.17;0.70;;;;;;;;;;4992766;28;20080;-76
2021/05/22 00:13:49;;;;;;;2.07;0.90;;;;;;;;;;4992083;28;20097;-75
2021/05/22 00:16:16;;;;;;;1.37;0.90;;;;;;;;;;5007182;28;20034;-78
2021/05/22 00:18:42;;;;;;;1.57;0.57;;;;;;;;;;5007321;28;20449;-76
2021/05/22 00:21:08;;;;;;;2.40;1.17;;;;;;;;;;4992463;28;20482;-77
2021/05/22 00:23:33;;;;;;;0.70;0.67;;;;;;;;;;4990899;28;20084;-77
2021/05/22 00:25:59;;;;;;;1.13;0.90;;;;;;;;;;5007199;28;20518;-77
2021/05/22 00:28:24;;;;;;;3.00;0.97;;;;;;;;;;4992300;28;20038;-76
2021/05/22 00:30:50;;;;;;;1.00;0.63;;;;;;;;;;4991842;28;20079;-76
2021/05/22 00:33:15;;;;;;;0.80;0.70;;;;;;;;;;5006995;28;20040;-77
2021/05/22 00:35:43;;;;;;;1.03;0.90;;;;;;;;;;4992221;28;20072;-76
2021/05/22 00:38:09;;;;;;;2.03;0.77;;;;;;;;;;4990837;28;20058;-75
2021/05/22 00:40:35;;;;;;;1.10;0.70;;;;;;;;;;4990512;28;20080;-77
2021/05/22 00:43:01;;;;;;;2.17;0.80;;;;;;;;;;4991610;28;20386;-76
2021/05/22 00:45:27;;;;;;;1.00;0.90;;;;;;;;;;5006271;28;20037;-76
2021/05/22 00:47:55;;;;;;;1.90;0.70;;;;;;;;;;4991500;28;20034;-77
2021/05/22 00:50:26;;;;;;;0.60;0.60;;;;;;;;;;5006611;28;20035;-75
2021/05/22 00:52:52;;;;;;;0.77;0.77;;;;;;;;;;4992025;28;20497;-76
2021/05/22 00:55:19;;;;;;;1.90;0.97;;;;;;;;;;5006855;28;20391;-77
2021/05/22 00:57:44;;;;;;;0.87;0.60;;;;;;;;;;4991681;28;20479;-76
2021/05/22 01:00:14;;;;;;;1.67;0.70;;;;;;;;;;5006604;28;20027;-76
2021/05/22 01:02:41;;;;;;;1.53;1.10;;;;;;;;;;4974246;28;20038;-77
2021/05/22 01:05:07;;;;;;;2.40;0.70;;;;;;;;;;5006433;28;20034;-77
2021/05/22 01:07:32;;;;;;;0.87;0.57;;;;;;;;;;5006452;28;20040;-75
2021/05/22 01:09:59;;;;;;;3.90;1.30;;;;;;;;;;4991749;28;20022;-77
2021/05/22 01:12:31;;;;;;;1.30;0.93;;;;;;;;;;4992523;28;20045;-76
2021/05/22 01:15:06;;;;;;;1.83;0.80;;;;;;;;;;4982035;28;20479;-77
2021/05/22 01:17:35;;;;;;;2.13;0.80;;;;;;;;;;4997513;28;20037;-75
2021/05/22 01:20:29;;;;;;;1.03;0.80;;;;;;;;;;5010762;28;20036;-76
2021/05/22 01:23:00;;;;;;;1.97;0.80;;;;;;;;;;4991473;28;20065;-77
2021/05/22 01:25:34;;;;;;;2.13;0.88;;;;;;;;;;5006366;28;20552;-77
2021/05/22 01:28:01;;;;;;;2.43;0.90;;;;;;;;;;5006292;28;20358;-77
2021/05/22 01:30:27;;;;;;;1.37;0.90;;;;;;;;;;5005289;28;20157;-77
2021/05/22 01:32:52;;;;;;;1.20;0.67;;;;;;;;;;4989611;28;20074;-77
2021/05/22 01:35:20;;;;;;;2.23;0.90;;;;;;;;;;4990598;28;20037;-75
2021/05/22 01:37:46;;;;;;;1.67;1.00;;;;;;;;;;4990860;28;20045;-77
2021/05/22 01:40:12;;;;;;;3.53;1.50;;;;;;;;;;5005598;28;20088;-76
2021/05/22 01:42:38;;;;;;;1.70;0.80;;;;;;;;;;4991068;28;20038;-77
2021/05/22 01:45:15;;;;;;;1.03;0.77;;;;;;;;;;4990395;28;20023;-76
2021/05/22 01:47:44;;;;;;;1.77;0.80;;;;;;;;;;5005718;28;20037;-77
2021/05/22 01:50:12;;;;;;;0.80;0.67;;;;;;;;;;5005553;28;20066;-76
2021/05/22 01:52:40;;;;;;;2.13;0.90;;;;;;;;;;5005627;28;20027;-76
2021/05/22 01:55:08;;;;;;;2.13;0.90;;;;;;;;;;4990955;28;20398;-76
2021/05/22 01:57:34;;;;;;;2.47;0.90;;;;;;;;;;4990301;28;20022;-77
2021/05/22 02:00:10;;;;;;;2.47;0.80;;;;;;;;;;4990244;28;20033;-76
2021/05/22 02:02:35;;;;;;;1.03;0.93;;;;;;;;;;4988956;28;20398;-77
2021/05/22 02:05:04;;;;;;;0.70;0.70;;;;;;;;;;4990992;28;20030;-78
2021/05/22 02:07:32;;;;;;;1.70;0.90;;;;;;;;;;4990475;28;20493;-77
2021/05/22 02:09:59;;;;;;;2.20;0.90;;;;;;;;;;4990343;28;20023;-77
2021/05/22 02:12:26;;;;;;;1.10;0.70;;;;;;;;;;5005068;28;20046;-77
2021/05/22 02:14:54;;;;;;;1.67;1.07;;;;;;;;;;5005744;28;20616;-76
2021/05/22 02:17:22;;;;;;;3.53;1.07;;;;;;;;;;5005436;28;20117;-76
2021/05/22 02:19:49;;;;;;;1.70;0.90;;;;;;;;;;4989057;28;20031;-76
2021/05/22 02:22:23;;;;;;;1.90;1.20;;;;;;;;;;4990292;28;20669;-75
2021/05/22 02:24:53;;;;;;;1.70;1.10;;;;;;;;;;4990749;28;20049;-75
2021/05/22 02:27:20;;;;;;;0.80;0.80;;;;;;;;;;5004700;28;20027;-76
2021/05/22 02:29:48;;;;;;;2.60;0.90;;;;;;;;;;4991921;28;20054;-76
2021/05/22 02:32:17;;;;;;;13.40;3.57;;;;;;;;;;4993728;28;20034;-77
2021/05/22 02:34:48;;;;;;;1.50;1.00;;;;;;;;;;5009233;28;20033;-76
2021/05/22 02:37:19;;;;;;;3.93;1.33;;;;;;;;;;5009048;28;20085;-76
2021/05/22 02:39:51;;;;;;;1.23;0.80;;;;;;;;;;4992441;28;20054;-77
2021/05/22 02:42:18;;;;;;;0.93;0.83;;;;;;;;;;4993481;28;20783;-76
2021/05/22 02:44:47;;;;;;;1.20;0.90;;;;;;;;;;5009014;28;20109;-76
2021/05/22 02:47:16;;;;;;;2.57;1.03;;;;;;;;;;4993463;28;20038;-77
2021/05/22 02:49:42;;;;;;;1.00;0.80;;;;;;;;;;4992462;28;20030;-79
2021/05/22 02:52:12;;;;;;;10.17;1.87;;;;;;;;;;5008405;28;20030;-77
2021/05/22 02:54:40;;;;;;;0.97;0.80;;;;;;;;;;5008515;28;20113;-77
2021/05/22 02:57:10;;;;;;;1.03;0.83;;;;;;;;;;4993385;28;20030;-75
2021/05/22 02:59:36;;;;;;;1.33;0.77;;;;;;;;;;4993489;28;20095;-76
2021/05/22 03:02:03;;;;;;;0.63;0.50;;;;;;;;;;4991723;28;20034;-77
2021/05/22 03:04:33;;;;;;;0.60;0.60;;;;;;;;;;4993504;28;20396;-77
2021/05/22 03:06:59;;;;;;;1.90;0.73;;;;;;;;;;4991922;28;20127;-77
2021/05/22 03:09:24;;;;;;;3.53;0.70;;;;;;;;;;4992978;28;20030;-74
2021/05/22 03:11:50;;;;;;;3.27;0.93;;;;;;;;;;4993920;28;20412;-75
2021/05/22 03:14:16;;;;;;;0.93;0.67;;;;;;;;;;5008821;28;20453;-72
2021/05/22 03:16:41;;;;;;;0.83;0.60;;;;;;;;;;4992201;28;20456;-73
2021/05/22 03:19:07;;;;;;;1.77;0.80;;;;;;;;;;4992321;28;20026;-73
2021/05/22 03:21:32;;;;;;;0.60;0.60;;;;;;;;;;4992811;28;20023;-74
2021/05/22 03:23:58;;;;;;;0.93;0.70;;;;;;;;;;4993693;28;20033;-74
2021/05/22 03:26:24;;;;;;;5.77;0.83;;;;;;;;;;5007975;28;20038;-76
2021/05/22 03:28:49;;;;;;;1.77;0.60;;;;;;;;;;5008359;28;20080;-76
2021/05/22 03:31:16;;;;;;;0.90;0.53;;;;;;;;;;4992716;28;20085;-76
2021/05/22 03:33:42;;;;;;;2.40;0.60;;;;;;;;;;4993022;28;20644;-76
2021/05/22 03:36:07;;;;;;;1.37;0.77;;;;;;;;;;5007573;28;20026;-75
2021/05/22 03:38:33;;;;;;;0.73;0.50;;;;;;;;;;4993015;28;20046;-76
2021/05/22 03:41:00;;;;;;;2.30;0.70;;;;;;;;;;5006963;28;20022;-78
2021/05/22 03:43:25;;;;;;;1.40;0.57;;;;;;;;;;4993681;28;20053;-78
2021/05/22 03:45:51;;;;;;;2.13;0.43;;;;;;;;;;4993357;28;20482;-76
2021/05/22 03:48:17;;;;;;;0.40;0.40;;;;;;;;;;4993273;28;20389;-77
2021/05/22 03:50:43;;;;;;;0.37;0.37;;;;;;;;;;5007871;28;20034;-76
2021/05/22 03:53:09;;;;;;;1.70;0.40;;;;;;;;;;4991707;28;20034;-73
2021/05/22 03:55:35;;;;;;;1.27;0.40;;;;;;;;;;5007773;28;20026;-74
2021/05/22 03:58:01;;;;;;;0.50;0.50;;;;;;;;;;5007359;28;20245;-74
2021/05/22 04:00:26;;;;;;;0.43;0.43;;;;;;;;;;4991962;28;20101;-74
2021/05/22 04:02:52;;;;;;;1.30;0.30;;;;;;;;;;5007315;28;20037;-75
2021/05/22 04:05:17;;;;;;;1.87;0.80;;;;;;;;;;4990875;28;20065;-74
2021/05/22 04:07:43;;;;;;;2.87;0.50;;;;;;;;;;4992239;28;20569;-75
2021/05/22 04:10:09;;;;;;;0.37;0.37;;;;;;;;;;4992077;28;20475;-74
2021/05/22 04:12:35;;;;;;;0.50;0.47;;;;;;;;;;4992126;28;20477;-74
2021/05/22 04:15:00;;;;;;;0.63;0.40;;;;;;;;;;5006979;28;20034;-74
2021/05/22 04:17:26;;;;;;;1.10;0.30;;;;;;;;;;4991713;28;20034;-75
2021/05/22 04:19:52;;;;;;;0.83;0.40;;;;;;;;;;4992001;28;20026;-74
2021/05/22 04:22:17;;;;;;;1.27;1.17;;;;;;;;;;4990302;28;20447;-75
2021/05/22 04:24:43;;;;;;;1.07;0.67;;;;;;;;;;5006764;28;20125;-74
2021/05/22 04:27:09;;;;;;;2.00;0.63;;;;;;;;;;4991795;28;20034;-75
2021/05/22 04:29:34;;;;;;;0.40;0.40;;;;;;;;;;4989987;28;20157;-76
2021/05/22 04:32:00;;;;;;;1.40;0.50;;;;;;;;;;5006662;28;20455;-74
2021/05/22 04:34:25;;;;;;;2.63;1.17;;;;;;;;;;5006662;28;20128;-74
2021/05/22 04:36:51;;;;;;;2.17;0.40;;;;;;;;;;5007515;28;20022;-74
2021/05/22 04:39:17;;;;;;;1.10;0.50;;;;;;;;;;4990997;28;20090;-74
2021/05/22 04:41:42;;;;;;;1.17;0.40;;;;;;;;;;4978070;28;20514;-73
2021/05/22 04:44:08;;;;;;;7.67;0.80;;;;;;;;;;4992924;28;20026;-73
2021/05/22 04:46:34;;;;;;;0.50;0.40;;;;;;;;;;4991587;28;20479;-74
2021/05/22 04:48:59;;;;;;;0.90;0.57;;;;;;;;;;5007180;28;20022;-75
2021/05/22 04:51:26;;;;;;;0.60;0.60;;;;;;;;;;5006677;28;20115;-74
2021/05/22 04:54:12;;;;;;;2.63;0.60;;;;;;;;;;4990765;28;20053;-74
2021/05/22 04:56:38;;;;;;;0.70;0.40;;;;;;;;;;4990253;28;20038;-75
2021/05/22 04:59:04;;;;;;;0.90;0.50;;;;;;;;;;5007304;28;20029;-74
2021/05/22 05:01:31;;;;;;;1.27;0.53;;;;;;;;;;4991760;28;20026;-73
2021/05/22 05:03:57;;;;;;;0.67;0.67;;;;;;;;;;4992340;28;20085;-73
2021/05/22 05:06:22;;;;;;;1.40;0.67;;;;;;;;;;4991987;28;20332;-73
2021/05/22 05:08:48;;;;;;;0.67;0.67;;;;;;;;;;5007193;28;20033;-74
2021/05/22 05:11:14;;;;;;;1.50;0.83;;;;;;;;;;5006549;28;20034;-74
2021/05/22 05:13:40;;;;;;;0.50;0.50;;;;;;;;;;5006774;28;20034;-74
2021/05/22 05:16:05;;;;;;;1.17;0.90;;;;;;;;;;5006422;28;20058;-74
2021/05/22 05:18:31;;;;;;;1.77;0.63;;;;;;;;;;4989959;28;20037;-73
2021/05/22 05:20:57;;;;;;;0.53;0.50;;;;;;;;;;4991655;28;20034;-74
2021/05/22 05:23:23;;;;;;;0.97;0.70;;;;;;;;;;5006471;28;20110;-74
2021/05/22 05:25:52;;;;;;;0.83;0.63;;;;;;;;;;4990215;28;20121;-75
2021/05/22 05:28:21;;;;;;;0.87;0.67;;;;;;;;;;4991334;28;20030;-75
2021/05/22 05:30:47;;;;;;;1.13;0.67;;;;;;;;;;4990569;28;20034;-74
2021/05/22 05:33:13;;;;;;;0.83;0.80;;;;;;;;;;4990934;28;20098;-75
2021/05/22 05:35:39;;;;;;;1.47;0.93;;;;;;;;;;4991629;28;20457;-74
2021/05/22 05:38:04;;;;;;;3.67;0.87;;;;;;;;;;5006074;28;20053;-74
2021/05/22 05:40:30;;;;;;;3.30;0.60;;;;;;;;;;4989906;28;20030;-74
2021/05/22 05:42:55;;;;;;;1.20;0.80;;;;;;;;;;5006037;28;20064;-73
2021/05/22 05:45:21;;;;;;;0.50;0.50;;;;;;;;;;4990829;28;20088;-75
2021/05/22 05:47:47;;;;;;;1.17;0.80;;;;;;;;;;5005840;28;20041;-75
2021/05/22 05:50:13;;;;;;;0.60;0.60;;;;;;;;;;5006205;28;20034;-74
2021/05/22 05:52:38;;;;;;;2.13;0.90;;;;;;;;;;5006041;28;20534;-74
2021/05/22 05:55:04;;;;;;;0.87;0.77;;;;;;;;;;5006031;28;20026;-74
2021/05/22 05:57:29;;;;;;;0.40;0.40;;;;;;;;;;5005991;28;20399;-74
2021/05/22 05:59:55;;;;;;;2.07;0.73;;;;;;;;;;4990934;28;20037;-76
2021/05/22 06:02:21;;;;;;;0.63;0.60;;;;;;;;;;4990645;28;20027;-73
2021/05/22 06:04:46;;;;;;;2.77;0.87;;;;;;;;;;5006016;28;20037;-74
2021/05/22 06:07:12;;;;;;;2.43;0.80;;;;;;;;;;4991003;28;20105;-75
2021/05/22 06:09:37;;;;;;;0.77;0.60;;;;;;;;;;4989998;28;20030;-77
2021/05/22 06:12:03;;;;;;;1.07;0.70;;;;;;;;;;4990428;28;20137;-77
2021/05/22 06:14:32;;;;;;;2.80;0.70;;;;;;;;;;5005343;28;20037;-76
2021/05/22 06:16:58;;;;;;;2.47;0.80;;;;;;;;;;4990017;28;20403;-75
2021/05/22 06:19:24;;;;;;;3.63;0.80;;;;;;;;;;4990224;28;20018;-76
2021/05/22 06:21:49;;;;;;;1.57;0.73;;;;;;;;;;4972831;28;20282;-76
2021/05/22 06:24:15;;;;;;;2.10;0.97;;;;;;;;;;5005353;28;20518;-75
2021/05/22 06:26:41;;;;;;;2.63;1.00;;;;;;;;;;4990299;28;20066;-76
2021/05/22 06:29:06;;;;;;;1.80;0.70;;;;;;;;;;4988517;28;20026;-76
2021/05/22 06:31:32;;;;;;;3.43;1.90;;;;;;;;;;4988296;28;20022;-78
2021/05/22 06:33:59;;;;;;;1.77;0.90;;;;;;;;;;4989656;28;20475;-76
2021/05/22 06:36:27;;;;;;;1.57;0.70;;;;;;;;;;4988485;28;20034;-77
2021/05/22 06:38:53;;;;;;;4.07;1.00;;;;;;;;;;4990059;28;20043;-78
2021/05/22 06:41:20;;;;;;;1.20;0.50;;;;;;;;;;4989433;28;20026;-76
2021/05/22 06:43:46;;;;;;;1.07;0.50;;;;;;;;;;4972352;28;20026;-76
2021/05/22 06:48:37;;;;;;;1.23;0.63;;;;;;;;;;4990137;28;20034;-77
2021/05/22 06:51:04;;;;;;;2.60;0.57;;;;;;;;;;4991823;28;20026;-76
2021/05/22 06:53:30;;;;;;;1.07;0.70;;;;;;;;;;4989590;28;20502;-76
2021/05/22 06:55:57;;;;;;;1.97;0.63;;;;;;;;;;4990329;28;20034;-76
2021/05/22 06:58:23;;;;;;;1.43;0.70;;;;;;;;;;5005201;28;20019;-75
2021/05/22 07:00:48;;;;;;;1.67;0.57;;;;;;;;;;4988019;28;20023;-76
2021/05/22 07:03:14;;;;;;;2.77;0.60;;;;;;;;;;4988441;28;20031;-75
2021/05/22 07:05:40;;;;;;;1.60;0.60;;;;;;;;;;4989819;28;20030;-76
2021/05/22 07:08:06;;;;;;;2.77;0.67;;;;;;;;;;4989850;28;20085;-76
2021/05/22 07:10:32;;;;;;;0.70;0.50;;;;;;;;;;4989236;28;20323;-76
2021/05/22 07:12:58;;;;;;;2.03;0.70;;;;;;;;;;4990155;28;20462;-74
2021/05/22 07:15:24;;;;;;;2.83;0.80;;;;;;;;;;4990823;28;20061;-76
2021/05/22 07:17:49;;;;;;;0.97;0.60;;;;;;;;;;5008225;28;20121;-75
2021/05/22 07:20:15;;;;;;;1.70;0.50;;;;;;;;;;4993210;28;20085;-73
2021/05/22 07:22:41;;;;;;;1.03;0.93;;;;;;;;;;4991604;28;20060;-74
2021/05/22 07:25:07;;;;;;;1.43;0.80;;;;;;;;;;5008390;28;20463;-75
2021/05/22 07:27:36;;;;;;;2.50;0.60;;;;;;;;;;4991760;28;20116;-75
2021/05/22 07:30:07;;;;;;;1.07;0.60;;;;;;;;;;4992939;28;20054;-74
2021/05/22 07:32:33;;;;;;;2.07;0.80;;;;;;;;;;4993446;28;20097;-74
2021/05/22 07:34:59;;;;;;;5.20;0.73;;;;;;;;;;4994973;28;20030;-74
2021/05/22 07:37:25;;;;;;;1.40;1.07;;;;;;;;;;4995371;28;20153;-75
2021/05/22 07:39:51;;;;;;;1.57;0.40;;;;;;;;;;5009770;28;20525;-75
2021/05/22 07:42:17;;;;;;;1.20;0.50;;;;;;;;;;4993464;28;20042;-74
2021/05/22 07:44:43;;;;;;;0.60;0.50;;;;;;;;;;4991662;28;20037;-75
2021/05/22 07:47:08;;;;;;;2.58;0.70;;;;;;;;;;4992798;28;20026;-75
2021/05/22 07:49:41;;;;;;;0.95;0.40;;;;;;;;;;5007234;28;20112;-75
2021/05/22 07:52:10;;;;;;;1.70;0.50;;;;;;;;;;5007837;28;20042;-75
2021/05/22 07:54:41;;;;;;;3.30;0.50;;;;;;;;;;4993244;28;20100;-73
2021/05/22 07:57:09;;;;;;;0.57;0.43;;;;;;;;;;5008316;28;20479;-74
2021/05/22 07:59:36;;;;;;;2.42;0.50;;;;;;;;;;4993302;28;20080;-75
2021/05/22 08:02:02;;;;;;;2.93;0.67;;;;;;;;;;4991941;28;20034;-76
2021/05/22 08:04:30;;;;;;;0.82;0.40;;;;;;;;;;5007297;28;20027;-75
2021/05/22 08:06:57;;;;;;;1.17;0.60;;;;;;;;;;4992640;28;20026;-75
2021/05/22 08:09:22;;;;;;;1.42;0.60;;;;;;;;;;4990743;28;20090;-76
2021/05/22 08:11:48;;;;;;;1.50;0.53;;;;;;;;;;4992625;28;20420;-76
2021/05/22 08:14:14;;;;;;;0.83;0.60;;;;;;;;;;4992692;28;20022;-74
2021/05/22 08:16:42;;;;;;;0.93;0.50;;;;;;;;;;5006868;28;20026;-73
2021/05/22 08:19:08;;;;;;;2.00;0.93;;;;;;;;;;5007241;28;20562;-74
2021/05/22 08:21:37;;;;;;;2.33;0.50;;;;;;;;;;4991551;28;20022;-75
2021/05/22 08:24:06;;;;;;;4.00;0.67;;;;;;;;;;4991587;28;20372;-75
2021/05/22 08:26:33;;;;;;;1.20;0.50;;;;;;;;;;4991683;28;20030;-75
2021/05/22 08:28:59;;;;;;;1.20;0.40;;;;;;;;;;4992140;28;20032;-74
2021/05/22 08:31:25;;;;;;;0.90;0.57;;;;;;;;;;5007352;28;20030;-74
2021/05/22 08:33:51;;;;;;;0.63;0.40;;;;;;;;;;5006976;28;20030;-75
2021/05/22 08:36:16;;;;;;;4.03;1.33;;;;;;;;;;4992305;28;20026;-74
2021/05/22 08:38:42;;;;;;;2.43;0.60;;;;;;;;;;5006156;28;20112;-74
2021/05/22 08:41:09;;;;;;;2.73;0.60;;;;;;;;;;4992237;28;20034;-76
2021/05/22 08:43:35;;;;;;;0.85;0.50;;;;;;;;;;4990463;28;20104;-74
2021/05/22 08:46:02;;;;;;;2.47;0.75;;;;;;;;;;4992125;28;20088;-74
2021/05/22 08:48:28;;;;;;;3.53;0.80;;;;;;;;;;5006591;28;20038;-76
2021/05/22 08:50:54;;;;;;;1.00;0.40;;;;;;;;;;5006412;28;20126;-75
2021/05/22 08:53:22;;;;;;;1.73;0.82;;;;;;;;;;4991553;28;20097;-76
2021/05/22 08:55:48;;;;;;;1.90;0.90;;;;;;;;;;5006265;28;20034;-75
2021/05/22 08:58:15;;;;;;;1.05;0.68;;;;;;;;;;5006634;28;20069;-75
2021/05/22 09:00:42;;;;;;;1.75;0.88;;;;;;;;;;4992135;28;20023;-76
2021/05/22 09:03:11;;;;;;;2.40;0.50;;;;;;;;;;5006421;28;20080;-76
2021/05/22 09:05:38;;;;;;;0.95;0.40;;;;;;;;;;4991143;28;20023;-75
2021/05/22 09:08:11;;;;;;;4.18;0.77;;;;;;;;;;5006500;28;20065;-76
2021/05/22 09:10:43;;;;;;;1.45;1.35;;;;;;;;;;5006203;28;20036;-74
2021/05/22 09:13:11;;;;;;;1.17;0.88;;;;;;;;;;4989691;28;20395;-75
2021/05/22 09:15:43;;;;;;;1.30;0.70;;;;;;;;;;5005704;28;20046;-74
2021/05/22 09:18:19;;;;;;;2.45;0.50;;;;;;;;;;4991060;28;20026;-73
2021/05/22 09:20:54;;;;;;;3.25;0.60;;;;;;;;;;5005753;28;20026;-75
2021/05/22 09:23:25;;;;;;;2.90;0.65;;;;;;;;;;4989795;28;20457;-76
2021/05/22 09:25:59;;;;;;;2.00;0.68;;;;;;;;;;5006169;28;20018;-75
2021/05/22 09:28:32;;;;;;;2.53;0.50;;;;;;;;;;5006158;28;20030;-73
2021/05/22 09:30:59;;;;;;;1.13;0.90;;;;;;;;;;5006252;28;20553;-75
2021/05/22 09:33:30;;;;;;;1.08;0.73;;;;;;;;;;5005580;28;20030;-75
2021/05/22 09:36:03;;;;;;;1.25;0.68;;;;;;;;;;4991387;28;20026;-75
2021/05/22 09:39:02;;;;;;;3.75;0.70;;;;;;;;;;4989907;28;20061;-74
2021/05/22 09:41:33;;;;;;;1.65;0.63;;;;;;;;;;4988578;28;20042;-76
2021/05/22 09:44:25;;;;;;;0.95;0.60;;;;;;;;;;5005523;28;20026;-74
2021/05/22 09:46:51;;;;;;;2.45;0.70;;;;;;;;;;4988856;28;20026;-76
2021/05/22 09:49:23;;;;;;;0.88;0.50;;;;;;;;;;4989288;28;20616;-75
2021/05/22 09:51:56;;;;;;;2.72;1.05;;;;;;;;;;4990152;28;20030;-75
2021/05/22 09:54:45;;;;;;;4.00;0.80;;;;;;;;;;4989652;28;20033;-75
2021/05/22 09:57:15;;;;;;;1.33;0.60;;;;;;;;;;5005422;28;20164;-75
2021/05/22 09:59:41;;;;;;;1.58;0.57;;;;;;;;;;4989264;28;20026;-75
2021/05/22 10:02:07;;;;;;;4.05;0.73;;;;;;;;;;4990247;28;20077;-75
2021/05/22 10:04:32;;;;;;;2.65;0.70;;;;;;;;;;4990307;28;20495;-75
2021/05/22 10:06:58;;;;;;;0.70;0.50;;;;;;;;;;4988980;28;20364;-74
2021/05/22 10:09:25;;;;;;;2.40;0.80;;;;;;;;;;4990061;28;20475;-74
2021/05/22 10:12:10;;;;;;;2.22;0.70;;;;;;;;;;4988457;28;20030;-75
2021/05/22 10:14:38;;;;;;;1.42;0.70;;;;;;;;;;4990160;28;20061;-75
2021/05/22 10:17:06;;;;;;;2.83;0.82;;;;;;;;;;4990369;28;20034;-73
2021/05/22 10:19:33;;;;;;;2.67;1.20;;;;;;;;;;5005489;28;20403;-75
2021/05/22 10:22:00;;;;;;;5.50;1.20;;;;;;;;;;4988820;28;20022;-75
2021/05/22 10:24:27;;;;;;;1.83;0.70;;;;;;;;;;4989082;28;20045;-75
2021/05/22 10:26:55;;;;;;;5.05;0.90;;;;;;;;;;5005277;28;20029;-76
2021/05/22 10:29:21;;;;;;;3.08;0.90;;;;;;;;;;5006956;28;20065;-75
2021/05/22 10:31:47;;;;;;;2.00;1.05;;;;;;;;;;5003157;28;20053;-75
2021/05/22 10:34:15;;;;;;;1.80;0.90;;;;;;;;;;4988473;28;20037;-75
2021/05/22 10:37:10;;;;;;;2.67;0.68;;;;;;;;;;4986690;28;20030;-74
2021/05/22 10:39:44;;;;;;;2.47;0.93;;;;;;;;;;4987961;28;20530;-76
2021/05/22 10:42:22;;;;;;;2.13;0.60;;;;;;;;;;5003558;28;20026;-74
2021/05/22 10:44:48;;;;;;;5.85;1.05;;;;;;;;;;4986591;28;20038;-75
2021/05/22 10:47:17;;;;;;;3.72;0.75;;;;;;;;;;5004197;28;20080;-74
2021/05/22 10:49:57;;;;;;;4.97;0.90;;;;;;;;;;4991198;28;20589;-75
2021/05/22 10:52:24;;;;;;;2.40;1.10;;;;;;;;;;5008617;28;20644;-75
2021/05/22 10:55:06;;;;;;;5.35;0.80;;;;;;;;;;4991876;28;20026;-75
2021/05/22 10:57:55;;;;;;;4.25;0.70;;;;;;;;;;5008605;28;20062;-75
2021/05/22 11:00:24;;;;;;;1.60;0.70;;;;;;;;;;5008422;28;20043;-74
2021/05/22 11:02:53;;;;;;;5.60;0.80;;;;;;;;;;5008267;28;20091;-76
2021/05/22 11:05:28;;;;;;;3.20;0.90;;;;;;;;;;5008373;28;20030;-76
2021/05/22 11:08:09;;;;;;;1.35;0.47;;;;;;;;;;4991684;28;20514;-74
2021/05/22 11:10:47;;;;;;;1.33;0.47;;;;;;;;;;4991394;28;20033;-76
2021/05/22 11:13:21;;;;;;;5.20;0.82;;;;;;;;;;4993452;28;20022;-75
2021/05/22 11:15:57;;;;;;;2.10;0.70;;;;;;;;;;4993065;28;20114;-75
2021/05/22 11:18:32;;;;;;;5.50;0.50;;;;;;;;;;4991740;28;20068;-73
2021/05/22 11:21:17;;;;;;;0.80;0.45;;;;;;;;;;4991684;28;20451;-76
2021/05/22 11:24:12;;;;;;;3.70;0.63;;;;;;;;;;4991790;28;20033;-74
2021/05/22 11:26:54;;;;;;;4.68;0.85;;;;;;;;;;4992397;28;20061;-75
2021/05/22 11:29:21;;;;;;;2.13;0.80;;;;;;;;;;4992189;28;20132;-75
2021/05/22 11:31:48;;;;;;;0.32;0.32;;;;;;;;;;4993441;28;20031;-75
2021/05/22 11:34:31;;;;;;;1.20;0.52;;;;;;;;;;5008879;28;20261;-73
2021/05/22 11:37:12;;;;;;;10.05;1.33;;;;;;;;;;4993852;28;20034;-73
2021/05/22 11:39:38;;;;;;;5.82;0.65;;;;;;;;;;4992873;28;20049;-74
2021/05/22 11:42:32;;;;;;;2.72;0.77;;;;;;;;;;4992681;28;20018;-73
2021/05/22 11:45:00;;;;;;;1.63;0.60;;;;;;;;;;5009474;28;20073;-75
2021/05/22 11:47:34;;;;;;;1.10;0.40;;;;;;;;;;5009986;28;20117;-73
2021/05/22 11:50:00;;;;;;;2.13;0.60;;;;;;;;;;5008223;28;20513;-74
2021/05/22 11:52:27;;;;;;;4.07;1.00;;;;;;;;;;4993117;28;20026;-75
2021/05/22 11:54:53;;;;;;;3.38;1.00;;;;;;;;;;4991485;28;20109;-74
2021/05/22 11:57:22;;;;;;;2.75;0.80;;;;;;;;;;5007765;28;20057;-74
2021/05/22 11:59:48;;;;;;;2.97;0.52;;;;;;;;;;5008108;28;20109;-75
2021/05/22 12:02:33;;;;;;;1.05;0.40;;;;;;;;;;5007102;28;20121;-74
2021/05/22 12:04:58;;;;;;;2.53;0.90;;;;;;;;;;4992909;28;20080;-73
2021/05/22 12:07:24;;;;;;;1.10;0.57;;;;;;;;;;5007723;28;20026;-73
2021/05/22 12:09:50;;;;;;;2.05;0.60;;;;;;;;;;4992789;28;20027;-73
2021/05/22 12:12:16;;;;;;;4.80;0.73;;;;;;;;;;4992722;28;20041;-76
2021/05/22 12:14:44;;;;;;;4.03;0.80;;;;;;;;;;4991421;28;20056;-74
2021/05/22 12:17:11;;;;;;;2.35;0.70;;;;;;;;;;4991328;28;20033;-75
2021/05/22 12:19:42;;;;;;;2.05;0.80;;;;;;;;;;4992967;28;20046;-74
2021/05/22 12:22:07;;;;;;;5.18;0.85;;;;;;;;;;4993120;28;20153;-73
2021/05/22 12:24:34;;;;;;;2.42;0.65;;;;;;;;;;5007849;28;20056;-75
2021/05/22 12:27:01;;;;;;;2.60;0.95;;;;;;;;;;4992732;28;20029;-74
2021/05/22 12:29:28;;;;;;;3.03;0.75;;;;;;;;;;5007469;28;20029;-74
2021/05/22 12:31:55;;;;;;;1.42;0.60;;;;;;;;;;4992388;28;20395;-74
2021/05/22 12:34:39;;;;;;;3.25;0.80;;;;;;;;;;4992901;28;20073;-74
2021/05/22 12:37:07;;;;;;;2.65;0.80;;;;;;;;;;4992650;28;20034;-74
2021/05/22 12:39:42;;;;;;;4.80;0.73;;;;;;;;;;5007160;28;20502;-74
2021/05/22 12:42:13;;;;;;;2.33;0.52;;;;;;;;;;4990652;28;20034;-77
2021/05/22 12:44:39;;;;;;;2.40;0.75;;;;;;;;;;4991504;28;20034;-77
2021/05/22 12:47:04;;;;;;;3.88;0.50;;;;;;;;;;4991361;28;20080;-76
2021/05/22 12:49:31;;;;;;;3.45;0.60;;;;;;;;;;5006409;28;20030;-76
2021/05/22 12:52:03;;;;;;;1.58;0.60;;;;;;;;;;4991516;28;20038;-76
2021/05/22 12:54:32;;;;;;;1.55;0.60;;;;;;;;;;5006738;28;20037;-77
2021/05/22 12:57:13;;;;;;;1.05;0.40;;;;;;;;;;4991150;28;20509;-77
2021/05/22 12:59:46;;;;;;;6.03;0.57;;;;;;;;;;5006141;28;20367;-77
2021/05/22 13:02:26;;;;;;;0.52;0.40;;;;;;;;;;4990915;28;20030;-77
2021/05/22 13:04:57;;;;;;;2.92;0.45;;;;;;;;;;5006663;28;20474;-78
2021/05/22 13:07:27;;;;;;;;;;;;;;;;;;5006922;28;20023;-76
2021/05/22 13:10:01;;;;;;;3.03;1.00;;;;;;;;;;5006047;28;19910;-79
2021/05/22 13:12:34;;;;;;;1.48;0.40;;;;;;;;;;5006224;28;20487;-76
2021/05/22 13:15:03;;;;;;;2.53;0.60;;;;;;;;;;4990770;28;20034;-78
2021/05/22 13:17:54;;;;;;;2.05;0.40;;;;;;;;;;4990179;28;20121;-76
2021/05/22 13:20:24;;;;;;;;;;;;;;;;;;4991317;28;20034;-77
2021/05/22 13:22:50;;;;;;;2.10;0.30;;;;;;;;;;4989552;28;20017;-75
2021/05/22 13:25:21;;;;;;;0.57;0.38;;;;;;;;;;5006516;28;20022;-77
2021/05/22 13:28:02;;;;;;;2.75;0.68;;;;;;;;;;5009081;28;20037;-77
2021/05/22 13:30:31;;;;;;;4.07;0.50;;;;;;;;;;4999562;28;20039;-76
2021/05/22 13:32:56;;;;;;;3.47;0.30;;;;;;;;;;4990537;28;20027;-77
2021/05/22 13:35:28;;;;;;;0.95;0.40;;;;;;;;;;5005631;28;20077;-76
2021/05/22 13:37:55;;;;;;;2.88;0.73;;;;;;;;;;5006966;28;20027;-77
2021/05/22 13:40:25;;;;;;;1.70;0.90;;;;;;;;;;5011344;28;20454;-77
2021/05/22 13:42:51;;;;;;;2.78;0.60;;;;;;;;;;5005392;28;20069;-77
2021/05/22 13:45:17;;;;;;;1.40;0.55;;;;;;;;;;4990521;28;20220;-76
2021/05/22 13:47:42;;;;;;;2.47;0.80;;;;;;;;;;4990906;28;20049;-76
2021/05/22 13:50:09;;;;;;;0.52;0.40;;;;;;;;;;4990738;28;20027;-78
2021/05/22 13:52:35;;;;;;;2.97;0.65;;;;;;;;;;5005506;28;20049;-77
2021/05/22 13:55:01;;;;;;;3.60;0.57;;;;;;;;;;4988873;28;20084;-78
2021/05/22 13:57:27;;;;;;;2.20;0.40;;;;;;;;;;5005561;28;20046;-76
2021/05/22 13:59:52;;;;;;;1.00;0.40;;;;;;;;;;5005364;28;20062;-77
2021/05/22 14:02:18;;;;;;;1.27;0.50;;;;;;;;;;4990662;28;20034;-78
2021/05/22 14:04:44;;;;;;;1.65;0.30;;;;;;;;;;4990163;28;20026;-78
2021/05/22 14:07:09;;;;;;;2.75;0.60;;;;;;;;;;5005479;28;20452;-76
2021/05/22 14:09:35;;;;;;;2.33;0.68;;;;;;;;;;4991170;28;20026;-77
2021/05/22 14:12:00;;;;;;;2.58;0.60;;;;;;;;;;5005151;28;20506;-78
2021/05/22 14:14:27;;;;;;;1.83;0.50;;;;;;;;;;4988993;28;20487;-76
2021/05/22 14:16:53;;;;;;;1.58;0.70;;;;;;;;;;5005136;28;20026;-78
2021/05/22 14:19:19;;;;;;;2.47;0.38;;;;;;;;;;4988647;28;20065;-77
2021/05/22 14:21:44;;;;;;;0.75;0.45;;;;;;;;;;5004856;28;20023;-77
2021/05/22 14:24:10;;;;;;;1.25;0.52;;;;;;;;;;4991020;28;20128;-78
2021/05/22 14:26:36;;;;;;;1.05;0.32;;;;;;;;;;5009023;28;20026;-77
2021/05/22 14:29:01;;;;;;;1.17;0.50;;;;;;;;;;4994072;28;20037;-75
2021/05/22 14:31:28;;;;;;;1.38;0.55;;;;;;;;;;4993689;28;20033;-77
2021/05/22 14:33:54;;;;;;;1.98;0.70;;;;;;;;;;4993693;28;20030;-77
2021/05/22 14:36:19;;;;;;;2.38;0.50;;;;;;;;;;5009101;28;20475;-78
2021/05/22 14:38:45;;;;;;;3.40;0.77;;;;;;;;;;4993828;28;20027;-77
2021/05/22 14:41:11;;;;;;;1.73;1.00;;;;;;;;;;4993922;28;20113;-77
2021/05/22 14:43:36;;;;;;;1.45;0.60;;;;;;;;;;5009258;28;20040;-78
2021/05/22 14:46:03;;;;;;;2.53;0.55;;;;;;;;;;5008124;28;20026;-76
2021/05/22 14:48:30;;;;;;;1.02;0.52;;;;;;;;;;5010349;28;20034;-77
2021/05/22 14:50:56;;;;;;;1.92;0.50;;;;;;;;;;4995088;28;20037;-78
2021/05/22 14:53:21;;;;;;;3.30;0.47;;;;;;;;;;5009278;28;20062;-78